KHYS

Hays Regional Airport

Airport
ICAO code
KHYS
IATA Code
HYS
Summary
ICAO Region
NAM
ICAO Territory
Location

Hays, Kansas

Serving
Hays
Elevation
1999 ft
Coordinates
38° 51' 14" N , 99° 16' 26" W
KCC
Airport CFIT
Altimeter Temperature Error Correction
Metar
KHYS 260056Z AUTO 14007KT 10SM CLR 14/M05 A2979 RMK AO2 SLP095 T01391050

Hays Regional Airport is a public-use airport located 3 nm southeast of the central business district of Hays, a city in Ellis County, Kansas.

 

Airport map

Aerial View

SKYbrary Partners:

Safety knowledge contributed by: